Time;durP1;ratioP1;P1;durP2;ratioP2;P2;SDS_P1;SDS_P2;PMS_P1;PMS_P2;Temp;Humidity;BMP_temperature;BMP_pressure;BME280_temperature;BME280_humidity;BME280_pressure;Samples;Min_cycle;Max_cycle;Signal;HPM_P1;HPM_P2
2021/03/01 00:00:30;;;;;;;;;;;25.30;99.90;;;;;;5035914;28;19920;-77
2021/03/01 00:02:57;;;;;;;;;;;25.30;99.90;;;;;;5010453;28;19924;-78
2021/03/01 00:05:23;;;;;;;;;;;25.40;99.90;;;;;;5019368;28;20424;-79
2021/03/01 00:07:50;;;;;;;;;;;25.50;99.90;;;;;;5020757;28;19917;-78
2021/03/01 00:10:17;;;;;;;;;;;25.60;99.90;;;;;;5036834;28;19943;-77
2021/03/01 00:12:46;;;;;;;;;;;25.60;99.90;;;;;;5039226;28;19917;-79
2021/03/01 00:15:15;;;;;;;;;;;25.80;99.90;;;;;;5049061;28;19945;-76
2021/03/01 00:17:42;;;;;;;;;;;25.90;99.90;;;;;;5052888;28;19921;-80
2021/03/01 00:20:10;;;;;;;;;;;25.80;99.90;;;;;;5038909;28;19980;-79
2021/03/01 00:22:37;;;;;;;;;;;25.80;99.90;;;;;;5014548;28;20291;-82
2021/03/01 00:25:05;;;;;;;;;;;25.90;99.90;;;;;;5013538;28;20486;-78
2021/03/01 00:27:32;;;;;;;;;;;26.00;99.90;;;;;;5013194;28;19948;-79
2021/03/01 00:29:59;;;;;;;;;;;26.20;99.90;;;;;;4995471;28;20428;-81
2021/03/01 00:32:25;;;;;;;;;;;26.20;99.90;;;;;;5026966;28;20266;-83
2021/03/01 00:34:52;;;;;;;;;;;26.30;99.90;;;;;;5031140;28;19932;-80
2021/03/01 00:37:19;;;;;;;;;;;26.40;99.90;;;;;;5033064;28;19968;-79
2021/03/01 00:39:45;;;;;;;;;;;26.40;99.90;;;;;;5018126;28;19909;-79
2021/03/01 00:42:12;;;;;;;;;;;26.40;99.90;;;;;;5017838;28;19917;-77
2021/03/01 00:44:39;;;;;;;;;;;26.50;99.90;;;;;;5014556;28;19960;-78
2021/03/01 00:47:05;;;;;;;;;;;26.50;99.90;;;;;;5026801;28;19921;-78
2021/03/01 00:49:32;;;;;;;;;;;26.70;99.90;;;;;;5029736;28;19913;-75
2021/03/01 00:51:59;;;;;;;;;;;26.90;99.90;;;;;;5022888;28;20015;-79
2021/03/01 00:54:25;;;;;;;;;;;26.90;99.90;;;;;;5024355;28;19928;-79
2021/03/01 00:56:52;;;;;;;;;;;26.90;99.90;;;;;;5019487;28;19921;-78
2021/03/01 00:59:19;;;;;;;;;;;27.00;99.90;;;;;;5031946;28;19909;-78
2021/03/01 01:01:45;;;;;;;;;;;27.20;99.90;;;;;;5033245;28;20007;-77
2021/03/01 01:04:12;;;;;;;;;;;27.20;99.90;;;;;;5030293;28;19917;-83
2021/03/01 01:06:39;;;;;;;;;;;27.30;99.90;;;;;;5012498;28;19932;-82
2021/03/01 01:09:06;;;;;;;;;;;27.60;99.90;;;;;;5012862;28;20280;-76
2021/03/01 01:11:32;;;;;;;;;;;27.80;99.90;;;;;;5019143;28;19910;-80
2021/03/01 01:13:59;;;;;;;;;;;28.40;99.90;;;;;;5030881;28;19920;-77
2021/03/01 01:16:26;;;;;;;;;;;28.50;99.90;;;;;;5013161;28;20461;-78
2021/03/01 01:18:59;;;;;;;;;;;28.70;99.90;;;;;;5021718;28;20272;-76
2021/03/01 01:21:26;;;;;;;;;;;29.30;99.80;;;;;;5011304;28;19964;-75
2021/03/01 01:23:52;;;;;;;;;;;29.80;98.20;;;;;;5012148;28;19954;-79
2021/03/01 01:26:19;;;;;;;;;;;29.80;98.00;;;;;;5012073;28;19969;-76
2021/03/01 01:28:46;;;;;;;;;;;29.80;99.60;;;;;;5025025;28;19966;-76
2021/03/01 01:31:12;;;;;;;;;;;29.80;99.90;;;;;;5011778;28;19946;-78
2021/03/01 01:33:39;;;;;;;;;;;30.00;99.90;;;;;;5013845;28;19917;-78
2021/03/01 01:36:06;;;;;;;;;;;30.20;99.90;;;;;;5024751;28;19921;-77
2021/03/01 01:38:32;;;;;;;;;;;30.20;99.90;;;;;;5018391;28;19960;-79
2021/03/01 01:40:59;;;;;;;;;;;30.10;99.90;;;;;;5020709;28;19917;-77
2021/03/01 01:43:26;;;;;;;;;;;30.10;99.90;;;;;;5014462;28;19993;-79
2021/03/01 01:45:52;;;;;;;;;;;29.80;99.90;;;;;;5018511;28;19920;-79
2021/03/01 01:48:19;;;;;;;;;;;30.00;99.90;;;;;;5012548;28;19920;-76
2021/03/01 01:50:46;;;;;;;;;;;30.20;99.90;;;;;;5023671;28;19957;-78
2021/03/01 01:53:13;;;;;;;;;;;29.90;99.90;;;;;;5019829;28;20366;-79
2021/03/01 01:55:40;;;;;;;;;;;29.50;99.90;;;;;;5036046;28;19960;-75
2021/03/01 01:58:06;;;;;;;;;;;29.00;99.90;;;;;;5045442;28;19909;-77
2021/03/01 02:00:45;;;;;;;;;;;28.70;99.90;;;;;;5037565;28;19916;-78
2021/03/01 02:03:31;;;;;;;;;;;28.50;99.90;;;;;;5041940;28;20424;-78
2021/03/01 02:06:02;;;;;;;;;;;28.40;99.90;;;;;;5042475;28;19916;-78
2021/03/01 02:08:54;;;;;;;;;;;28.30;99.90;;;;;;5038391;28;19909;-77
2021/03/01 02:11:30;;;;;;;;;;;28.30;99.90;;;;;;4995314;28;19971;-80
2021/03/01 02:14:02;;;;;;;;;;;28.30;99.90;;;;;;5015988;28;19964;-79
2021/03/01 02:16:31;;;;;;;;;;;28.30;99.90;;;;;;5015353;28;20275;-79
2021/03/01 02:18:58;;;;;;;;;;;28.40;99.90;;;;;;4998165;28;19980;-78
2021/03/01 02:21:25;;;;;;;;;;;28.20;99.90;;;;;;5016385;28;20055;-79
2021/03/01 02:23:52;;;;;;;;;;;28.30;99.90;;;;;;5025895;28;19936;-78
2021/03/01 02:26:24;;;;;;;;;;;28.20;99.90;;;;;;5035338;28;19920;-79
2021/03/01 02:28:53;;;;;;;;;;;28.30;99.90;;;;;;5014423;28;19913;-78
2021/03/01 02:31:22;;;;;;;;;;;28.30;99.90;;;;;;5032209;28;19954;-79
2021/03/01 02:33:53;;;;;;;;;;;28.20;99.90;;;;;;5034615;28;20654;-79
2021/03/01 02:36:19;;;;;;;;;;;28.20;99.90;;;;;;5035228;28;19917;-78
2021/03/01 02:38:47;;;;;;;;;;;28.20;99.90;;;;;;5029549;28;19960;-75
2021/03/01 02:41:14;;;;;;;;;;;28.10;99.90;;;;;;5017792;28;19914;-79
2021/03/01 02:44:09;;;;;;;;;;;28.00;99.90;;;;;;5015036;28;19943;-75
2021/03/01 02:46:37;;;;;;;;;;;28.00;99.90;;;;;;5019877;28;19913;-79
2021/03/01 02:49:08;;;;;;;;;;;28.10;99.90;;;;;;5023993;28;19917;-77
2021/03/01 02:51:39;;;;;;;;;;;28.10;99.90;;;;;;5023846;28;20319;-79
2021/03/01 02:54:07;;;;;;;;;;;28.20;99.90;;;;;;5034881;28;19916;-75
2021/03/01 02:56:33;;;;;;;;;;;28.30;99.90;;;;;;5022978;28;19921;-77
2021/03/01 02:59:02;;;;;;;;;;;28.20;99.90;;;;;;5031536;28;19917;-77
2021/03/01 03:01:29;;;;;;;;;;;28.20;99.90;;;;;;5023191;28;19917;-78
2021/03/01 03:03:56;;;;;;;;;;;28.10;99.90;;;;;;5017490;28;19909;-79
2021/03/01 03:06:24;;;;;;;;;;;28.10;99.90;;;;;;5019047;28;19920;-78
2021/03/01 03:08:51;;;;;;;;;;;28.00;99.90;;;;;;5024133;28;20067;-79
2021/03/01 03:11:19;;;;;;;;;;;28.00;99.90;;;;;;5028993;28;20422;-78
2021/03/01 03:13:49;;;;;;;;;;;27.90;99.90;;;;;;5025296;28;19909;-78
2021/03/01 03:16:17;;;;;;;;;;;27.90;99.90;;;;;;5021751;28;20008;-80
2021/03/01 03:18:45;;;;;;;;;;;27.80;99.90;;;;;;5034098;28;19966;-79
2021/03/01 03:21:15;;;;;;;;;;;27.90;99.90;;;;;;5031609;28;19913;-79
2021/03/01 03:23:44;;;;;;;;;;;27.90;99.90;;;;;;5032958;28;20607;-77
2021/03/01 03:26:13;;;;;;;;;;;27.90;99.90;;;;;;5023058;28;19936;-78
2021/03/01 03:28:43;;;;;;;;;;;28.00;99.90;;;;;;5041870;28;19913;-79
2021/03/01 03:31:11;;;;;;;;;;;27.90;99.90;;;;;;5023821;28;19920;-77
2021/03/01 03:33:41;;;;;;;;;;;27.90;99.90;;;;;;5024162;28;19955;-77
2021/03/01 03:36:08;;;;;;;;;;;27.90;99.90;;;;;;5019785;28;19921;-77
2021/03/01 03:38:40;;;;;;;;;;;28.10;99.90;;;;;;5031334;28;19967;-77
2021/03/01 03:41:08;;;;;;;;;;;28.20;99.90;;;;;;5025566;28;19980;-80
2021/03/01 03:43:39;;;;;;;;;;;28.20;99.90;;;;;;5013714;28;19909;-78
2021/03/01 03:46:06;;;;;;;;;;;28.30;99.90;;;;;;5031274;28;19956;-80
2021/03/01 03:48:34;;;;;;;;;;;28.20;99.90;;;;;;5024378;28;19913;-77
2021/03/01 03:51:03;;;;;;;;;;;28.20;99.90;;;;;;5016365;28;19913;-78
2021/03/01 03:53:31;;;;;;;;;;;28.20;99.90;;;;;;5026802;28;19920;-78
2021/03/01 03:56:00;;;;;;;;;;;28.20;99.90;;;;;;5031463;28;19921;-78
2021/03/01 03:58:31;;;;;;;;;;;28.20;99.90;;;;;;5044159;28;20321;-77
2021/03/01 04:00:59;;;;;;;;;;;28.20;99.90;;;;;;5031597;28;19917;-77
2021/03/01 04:03:27;;;;;;;;;;;28.10;99.90;;;;;;5031212;28;19917;-78
2021/03/01 04:05:56;;;;;;;;;;;28.00;99.90;;;;;;5023550;28;19983;-79
2021/03/01 04:08:23;;;;;;;;;;;28.10;99.90;;;;;;5013631;28;19910;-80
2021/03/01 04:10:52;;;;;;;;;;;28.10;99.90;;;;;;5017269;28;19913;-78
2021/03/01 04:13:20;;;;;;;;;;;28.10;99.90;;;;;;5020441;28;19925;-82
2021/03/01 04:15:48;;;;;;;;;;;28.20;99.90;;;;;;5018856;28;19922;-79
2021/03/01 04:18:24;;;;;;;;;;;28.10;99.90;;;;;;5040159;28;19920;-80
2021/03/01 04:20:52;;;;;;;;;;;27.80;99.90;;;;;;5040863;28;19909;-76
2021/03/01 04:23:23;;;;;;;;;;;27.60;99.90;;;;;;5025009;28;19953;-76
2021/03/01 04:25:51;;;;;;;;;;;27.50;99.90;;;;;;5031064;28;19913;-78
2021/03/01 04:28:22;;;;;;;;;;;27.60;99.90;;;;;;5032004;28;19913;-76
2021/03/01 04:30:49;;;;;;;;;;;27.90;99.90;;;;;;5033097;28;19981;-77
2021/03/01 04:33:16;;;;;;;;;;;28.00;99.90;;;;;;5025401;28;19923;-78
2021/03/01 04:35:44;;;;;;;;;;;27.90;99.90;;;;;;5025774;28;19922;-80
2021/03/01 04:38:10;;;;;;;;;;;27.90;99.90;;;;;;5013942;28;19986;-79
2021/03/01 04:40:37;;;;;;;;;;;27.80;99.90;;;;;;5014904;28;19964;-80
2021/03/01 04:43:06;;;;;;;;;;;27.70;99.90;;;;;;5004348;28;20268;-79
2021/03/01 04:45:33;;;;;;;;;;;27.80;99.90;;;;;;5031221;28;19960;-78
2021/03/01 04:48:00;;;;;;;;;;;27.70;99.90;;;;;;5039977;28;19982;-78
2021/03/01 04:50:30;;;;;;;;;;;27.90;99.90;;;;;;5050449;28;19948;-78
2021/03/01 04:52:56;;;;;;;;;;;28.00;99.90;;;;;;5014956;28;19917;-79
2021/03/01 04:55:23;;;;;;;;;;;27.90;99.90;;;;;;5016787;28;19921;-79
2021/03/01 04:57:52;;;;;;;;;;;27.90;99.90;;;;;;5038761;28;19913;-78
2021/03/01 05:00:19;;;;;;;;;;;27.90;99.90;;;;;;5042664;28;19913;-78
2021/03/01 05:02:46;;;;;;;;;;;28.00;99.90;;;;;;5025498;28;19910;-80
2021/03/01 05:05:13;;;;;;;;;;;28.00;99.90;;;;;;5012964;28;19916;-78
2021/03/01 05:07:46;;;;;;;;;;;28.10;99.90;;;;;;5013097;28;20000;-78
2021/03/01 05:10:13;;;;;;;;;;;28.00;99.90;;;;;;5012697;28;19996;-80
2021/03/01 05:12:40;;;;;;;;;;;28.00;99.90;;;;;;4995041;28;19917;-80
2021/03/01 05:15:07;;;;;;;;;;;27.90;99.90;;;;;;5012721;28;20004;-81
2021/03/01 05:17:33;;;;;;;;;;;27.90;99.90;;;;;;5012997;28;19928;-78
2021/03/01 05:20:00;;;;;;;;;;;27.90;99.90;;;;;;5028111;28;19918;-80
2021/03/01 05:22:29;;;;;;;;;;;27.80;99.90;;;;;;5008032;28;20010;-77
2021/03/01 05:24:56;;;;;;;;;;;27.90;99.90;;;;;;5026106;28;20362;-78
2021/03/01 05:27:23;;;;;;;;;;;27.80;99.90;;;;;;5022220;28;20379;-81
2021/03/01 05:29:49;;;;;;;;;;;27.70;99.90;;;;;;5031391;28;19914;-79
2021/03/01 05:32:16;;;;;;;;;;;27.60;99.90;;;;;;5023084;28;20008;-77
2021/03/01 05:34:43;;;;;;;;;;;27.50;99.90;;;;;;5027965;28;19965;-82
2021/03/01 05:37:09;;;;;;;;;;;27.40;99.90;;;;;;5036440;28;19909;-81
2021/03/01 05:39:39;;;;;;;;;;;27.30;99.90;;;;;;5022437;28;20035;-82
2021/03/01 05:42:06;;;;;;;;;;;27.30;99.90;;;;;;5044697;28;20398;-79
2021/03/01 05:44:33;;;;;;;;;;;27.30;99.90;;;;;;5038854;28;19901;-82
2021/03/01 05:47:00;;;;;;;;;;;27.20;99.90;;;;;;5018929;28;19910;-82
2021/03/01 05:49:28;;;;;;;;;;;27.20;99.90;;;;;;5016761;28;19958;-79
2021/03/01 05:51:55;;;;;;;;;;;27.10;99.90;;;;;;5017560;28;20014;-76
2021/03/01 05:54:24;;;;;;;;;;;27.10;99.90;;;;;;5036378;28;19924;-80
2021/03/01 05:56:51;;;;;;;;;;;27.20;99.90;;;;;;5046151;28;19913;-80
2021/03/01 05:59:22;;;;;;;;;;;27.30;99.90;;;;;;5022240;28;19932;-77
2021/03/01 06:01:49;;;;;;;;;;;27.30;99.90;;;;;;5000360;28;19914;-86
2021/03/01 06:04:16;;;;;;;;;;;27.50;99.90;;;;;;4999515;28;19909;-82
2021/03/01 06:06:42;;;;;;;;;;;27.50;99.90;;;;;;4998689;28;19910;-81
2021/03/01 06:09:09;;;;;;;;;;;27.60;99.90;;;;;;5033297;28;19925;-81
2021/03/01 06:11:36;;;;;;;;;;;27.60;99.90;;;;;;5034346;28;19967;-78
2021/03/01 06:14:03;;;;;;;;;;;27.60;99.90;;;;;;5030354;28;19913;-83
2021/03/01 06:16:31;;;;;;;;;;;27.60;99.90;;;;;;5027250;28;19994;-79
2021/03/01 06:18:58;;;;;;;;;;;27.50;99.90;;;;;;5035219;28;20007;-80
2021/03/01 06:21:24;;;;;;;;;;;27.40;99.90;;;;;;5039540;28;19913;-82
2021/03/01 06:23:53;;;;;;;;;;;27.20;99.90;;;;;;5018403;28;19913;-82
2021/03/01 06:26:28;;;;;;;;;;;27.20;99.90;;;;;;5026742;28;20378;-79
2021/03/01 06:28:57;;;;;;;;;;;27.20;99.90;;;;;;5034552;28;19916;-85
2021/03/01 06:31:40;;;;;;;;;;;27.10;99.90;;;;;;5027132;28;20569;-77
2021/03/01 06:34:26;;;;;;;;;;;27.00;99.90;;;;;;5016200;28;19924;-82
2021/03/01 06:36:57;;;;;;;;;;;26.90;99.90;;;;;;5026618;28;19921;-82
2021/03/01 06:39:42;;;;;;;;;;;26.90;99.90;;;;;;5040907;28;20012;-81
2021/03/01 06:42:18;;;;;;;;;;;26.90;99.90;;;;;;5035812;28;20371;-79
2021/03/01 06:44:49;;;;;;;;;;;26.90;99.90;;;;;;5015530;28;20348;-77
2021/03/01 06:47:16;;;;;;;;;;;26.80;99.90;;;;;;5033747;28;19948;-81
2021/03/01 06:49:45;;;;;;;;;;;26.80;99.90;;;;;;5024431;28;19967;-80
2021/03/01 06:52:31;;;;;;;;;;;26.70;99.90;;;;;;5034972;28;19920;-79
2021/03/01 06:55:08;;;;;;;;;;;26.70;99.90;;;;;;5023484;28;19917;-80
2021/03/01 06:57:34;;;;;;;;;;;26.60;99.90;;;;;;5016817;28;19917;-81
2021/03/01 07:00:01;;;;;;;;;;;26.70;99.90;;;;;;5002141;28;19944;-83
2021/03/01 07:02:40;;;;;;;;;;;26.80;99.90;;;;;;5022180;28;19936;-78
2021/03/01 07:05:08;;;;;;;;;;;26.80;99.90;;;;;;5024690;28;19913;-81
2021/03/01 07:07:35;;;;;;;;;;;26.90;99.90;;;;;;5023695;28;19976;-82
2021/03/01 07:10:03;;;;;;;;;;;26.90;99.90;;;;;;5016541;28;19921;-80
2021/03/01 07:12:37;;;;;;;;;;;26.90;99.90;;;;;;5006820;28;19948;-83
2021/03/01 07:15:05;;;;;;;;;;;26.90;99.90;;;;;;5015456;28;19917;-77
2021/03/01 07:17:32;;;;;;;;;;;26.90;99.90;;;;;;5020649;28;19925;-79
2021/03/01 07:20:00;;;;;;;;;;;26.80;99.90;;;;;;5033236;28;20348;-80
2021/03/01 07:22:27;;;;;;;;;;;26.90;99.90;;;;;;5016284;28;19933;-79
2021/03/01 07:24:54;;;;;;;;;;;26.80;99.90;;;;;;5031038;28;19967;-80
2021/03/01 07:27:22;;;;;;;;;;;26.80;99.90;;;;;;5031482;28;20008;-81
2021/03/01 07:29:51;;;;;;;;;;;26.70;99.90;;;;;;5023499;28;19913;-81
2021/03/01 07:32:20;;;;;;;;;;;26.60;99.90;;;;;;5014185;28;20364;-81
2021/03/01 07:34:47;;;;;;;;;;;26.70;99.90;;;;;;5034911;28;19914;-82
2021/03/01 07:37:14;;;;;;;;;;;26.60;99.90;;;;;;5034844;28;19913;-78
2021/03/01 07:39:41;;;;;;;;;;;26.60;99.90;;;;;;5019822;28;20344;-81
2021/03/01 07:42:11;;;;;;;;;;;26.60;99.90;;;;;;5036434;28;19909;-83
2021/03/01 07:44:38;;;;;;;;;;;26.60;99.90;;;;;;5034376;28;19985;-80
2021/03/01 07:47:05;;;;;;;;;;;26.50;99.90;;;;;;5034582;28;19983;-82
2021/03/01 07:49:38;;;;;;;;;;;26.50;99.90;;;;;;5016911;28;19913;-83
2021/03/01 07:52:05;;;;;;;;;;;26.40;99.90;;;;;;5016465;28;20436;-78
2021/03/01 07:54:51;;;;;;;;;;;26.50;99.90;;;;;;5016445;28;19917;-79
2021/03/01 07:57:19;;;;;;;;;;;26.40;99.90;;;;;;5034132;28;20011;-79
2021/03/01 07:59:45;;;;;;;;;;;26.30;99.90;;;;;;5037976;28;19910;-76
2021/03/01 08:02:13;;;;;;;;;;;26.30;99.90;;;;;;5051542;28;19923;-77
2021/03/01 08:04:40;;;;;;;;;;;26.30;99.90;;;;;;5038629;28;19913;-80
2021/03/01 08:07:07;;;;;;;;;;;26.30;99.90;;;;;;5034125;28;20408;-78
2021/03/01 08:09:41;;;;;;;;;;;26.20;99.90;;;;;;5033965;28;19924;-81
2021/03/01 08:12:08;;;;;;;;;;;26.20;99.90;;;;;;5034080;28;19909;-75
2021/03/01 08:14:53;;;;;;;;;;;26.10;99.90;;;;;;5033492;28;19999;-83
2021/03/01 08:17:26;;;;;;;;;;;26.10;99.90;;;;;;5033864;28;19921;-82
2021/03/01 08:19:53;;;;;;;;;;;26.00;99.90;;;;;;5034146;28;20371;-82
2021/03/01 08:22:20;;;;;;;;;;;26.00;99.90;;;;;;5034341;28;19941;-77
2021/03/01 08:24:47;;;;;;;;;;;26.00;99.90;;;;;;5033737;28;19909;-82
2021/03/01 08:33:47;;;;;;;;;;;25.90;99.90;;;;;;5041966;28;19909;-78
2021/03/01 08:36:14;;;;;;;;;;;25.80;99.90;;;;;;5040526;28;19917;-81
2021/03/01 08:38:45;;;;;;;;;;;25.80;99.90;;;;;;5013521;28;19909;-78
2021/03/01 08:41:19;;;;;;;;;;;25.80;99.90;;;;;;5023437;28;19952;-81
2021/03/01 08:43:52;;;;;;;;;;;25.80;99.90;;;;;;5043348;28;19913;-76
2021/03/01 08:46:20;;;;;;;;;;;25.80;99.90;;;;;;5042871;28;19909;-82
2021/03/01 08:48:48;;;;;;;;;;;25.70;99.90;;;;;;5025071;28;20054;-78
2021/03/01 08:51:15;;;;;;;;;;;25.70;99.90;;;;;;5044215;28;20015;-77
2021/03/01 08:53:42;;;;;;;;;;;25.70;99.90;;;;;;5041984;28;20018;-80
2021/03/01 08:56:28;;;;;;;;;;;25.60;99.90;;;;;;5042810;28;19917;-80
2021/03/01 08:58:55;;;;;;;;;;;25.60;99.90;;;;;;5051956;28;19916;-80
2021/03/01 09:01:22;;;;;;;;;;;25.60;99.90;;;;;;5053037;28;20391;-81
2021/03/01 09:03:49;;;;;;;;;;;25.60;99.90;;;;;;5052235;28;20311;-82
2021/03/01 09:06:19;;;;;;;;;;;25.60;99.90;;;;;;5035007;28;20358;-81
2021/03/01 09:08:56;;;;;;;;;;;25.60;99.90;;;;;;5013691;28;20284;-82
2021/03/01 09:11:24;;;;;;;;;;;25.60;99.90;;;;;;5013346;28;20364;-80
2021/03/01 09:13:52;;;;;;;;;;;25.60;99.90;;;;;;5013286;28;19957;-86
2021/03/01 09:16:28;;;;;;;;;;;25.60;99.90;;;;;;5013886;28;19918;-84
2021/03/01 09:19:11;;;;;;;;;;;25.60;99.90;;;;;;5013767;28;19952;-80
2021/03/01 09:21:40;;;;;;;;;;;25.50;99.90;;;;;;5013973;28;19910;-78
2021/03/01 09:24:08;;;;;;;;;;;25.50;99.90;;;;;;5013301;28;19910;-82
2021/03/01 09:26:36;;;;;;;;;;;25.40;99.90;;;;;;5023946;28;19909;-80
2021/03/01 09:29:07;;;;;;;;;;;25.40;99.90;;;;;;5008783;28;20338;-84
2021/03/01 09:31:38;;;;;;;;;;;25.40;99.90;;;;;;5023188;28;19940;-82
2021/03/01 09:34:06;;;;;;;;;;;25.40;99.90;;;;;;5032835;28;19913;-83
2021/03/01 09:36:33;;;;;;;;;;;25.40;99.90;;;;;;5033674;28;20391;-77
2021/03/01 09:39:01;;;;;;;;;;;25.40;99.90;;;;;;5005011;28;19968;-82
2021/03/01 09:41:38;;;;;;;;;;;25.30;99.90;;;;;;5016588;28;20476;-75
2021/03/01 09:44:05;;;;;;;;;;;25.30;99.90;;;;;;5014863;28;19917;-77
2021/03/01 09:46:32;;;;;;;;;;;25.30;99.90;;;;;;5022327;28;20199;-82
2021/03/01 09:49:27;;;;;;;;;;;25.20;99.90;;;;;;5029052;28;20463;-78
2021/03/01 09:52:40;;;;;;;;;;;25.30;99.90;;;;;;5017736;28;19968;-81
2021/03/01 09:55:09;;;;;;;;;;;25.20;99.90;;;;;;4942919;28;20390;-82
2021/03/01 09:57:35;;;;;;;;;;;25.20;99.90;;;;;;4953170;28;19918;-80
2021/03/01 10:00:20;;;;;;;;;;;25.20;99.90;;;;;;5023818;28;19922;-78
2021/03/01 10:03:00;;;;;;;;;;;25.10;99.90;;;;;;5019313;28;20008;-83
2021/03/01 10:05:29;;;;;;;;;;;25.20;99.90;;;;;;5016681;28;19923;-78
2021/03/01 10:07:57;;;;;;;;;;;25.10;99.90;;;;;;5015414;28;19917;-81
2021/03/01 10:10:24;;;;;;;;;;;25.10;99.90;;;;;;5018631;28;19913;-81
2021/03/01 10:12:51;;;;;;;;;;;25.10;99.90;;;;;;5033297;28;19912;-78
2021/03/01 10:15:18;;;;;;;;;;;25.00;99.90;;;;;;5022886;28;19925;-77
2021/03/01 10:17:45;;;;;;;;;;;25.00;99.90;;;;;;5021651;28;19925;-76
2021/03/01 10:20:13;;;;;;;;;;;25.00;99.90;;;;;;5033736;28;19945;-78
2021/03/01 10:22:58;;;;;;;;;;;24.90;99.90;;;;;;5033096;28;19956;-78
2021/03/01 10:25:38;;;;;;;;;;;24.90;99.90;;;;;;5032077;28;19944;-77
2021/03/01 10:28:25;;;;;;;;;;;24.90;99.90;;;;;;5033580;28;19913;-79
2021/03/01 10:31:06;;;;;;;;;;;24.90;99.90;;;;;;5032781;28;19913;-82
2021/03/01 10:33:48;;;;;;;;;;;24.90;99.90;;;;;;5031792;28;19928;-75
2021/03/01 10:36:15;;;;;;;;;;;24.90;99.90;;;;;;5032014;28;19921;-77
2021/03/01 10:39:04;;;;;;;;;;;24.90;99.90;;;;;;5033160;28;19913;-77
2021/03/01 10:41:32;;;;;;;;;;;24.90;99.90;;;;;;5027700;28;19932;-78
2021/03/01 10:44:04;;;;;;;;;;;24.80;99.90;;;;;;5033270;28;20347;-80
2021/03/01 10:46:37;;;;;;;;;;;24.80;99.90;;;;;;5032833;28;19956;-78
2021/03/01 10:49:13;;;;;;;;;;;24.80;99.90;;;;;;5028364;28;19918;-78
2021/03/01 10:51:40;;;;;;;;;;;24.80;99.90;;;;;;5025195;28;20427;-78
2021/03/01 10:54:06;;;;;;;;;;;24.70;99.90;;;;;;5022211;28;19917;-80
2021/03/01 10:56:33;;;;;;;;;;;24.70;99.90;;;;;;5021026;28;19925;-79
2021/03/01 10:59:00;;;;;;;;;;;24.60;99.90;;;;;;5024342;28;19949;-80
2021/03/01 11:01:52;;;;;;;;;;;24.70;99.90;;;;;;5019561;28;19918;-82
2021/03/01 11:04:19;;;;;;;;;;;24.90;99.90;;;;;;5018912;28;20372;-79
2021/03/01 11:06:47;;;;;;;;;;;25.00;99.90;;;;;;5024894;28;19916;-81
2021/03/01 11:09:14;;;;;;;;;;;25.10;99.90;;;;;;5034325;28;20328;-80
2021/03/01 11:11:41;;;;;;;;;;;25.20;99.90;;;;;;5014133;28;20047;-81
2021/03/01 11:14:10;;;;;;;;;;;25.20;99.90;;;;;;5029894;28;19952;-80
2021/03/01 11:16:37;;;;;;;;;;;25.20;99.90;;;;;;5029879;28;20307;-78
2021/03/01 11:19:04;;;;;;;;;;;25.30;99.90;;;;;;5018086;28;19947;-78
2021/03/01 11:21:31;;;;;;;;;;;25.30;99.90;;;;;;5037680;28;19913;-78
2021/03/01 11:24:01;;;;;;;;;;;25.30;99.90;;;;;;5025625;28;20323;-77
2021/03/01 11:26:28;;;;;;;;;;;25.20;99.90;;;;;;5022903;28;20031;-76
2021/03/01 11:28:55;;;;;;;;;;;25.20;99.90;;;;;;5031969;28;19959;-79
2021/03/01 11:31:22;;;;;;;;;;;25.10;99.90;;;;;;5038939;28;20011;-79
2021/03/01 11:33:49;;;;;;;;;;;25.00;99.90;;;;;;5034282;28;20002;-79
2021/03/01 11:36:16;;;;;;;;;;;24.90;99.90;;;;;;5038308;28;19921;-76
2021/03/01 11:38:43;;;;;;;;;;;24.70;99.90;;;;;;5012144;28;20512;-76
2021/03/01 11:41:14;;;;;;;;;;;24.60;99.90;;;;;;5037991;28;19916;-78
2021/03/01 11:43:42;;;;;;;;;;;24.40;99.90;;;;;;5021457;28;19928;-79
2021/03/01 11:46:09;;;;;;;;;;;24.20;99.90;;;;;;5015210;28;20364;-77
2021/03/01 11:48:36;;;;;;;;;;;24.00;99.90;;;;;;5040625;28;20359;-82
2021/03/01 11:51:03;;;;;;;;;;;23.80;99.90;;;;;;5031080;28;19924;-84
2021/03/01 11:53:30;;;;;;;;;;;23.70;99.90;;;;;;5013195;28;19913;-77
2021/03/01 11:55:56;;;;;;;;;;;23.50;99.90;;;;;;5034244;28;19979;-84
2021/03/01 11:58:23;;;;;;;;;;;23.40;99.90;;;;;;5029026;28;19917;-86
2021/03/01 12:00:50;;;;;;;;;;;23.20;99.90;;;;;;5024968;28;19992;-78
2021/03/01 12:03:16;;;;;;;;;;;23.10;99.90;;;;;;5032022;28;19967;-85
2021/03/01 12:05:43;;;;;;;;;;;23.10;99.90;;;;;;5027889;28;19917;-83
2021/03/01 12:08:10;;;;;;;;;;;23.00;99.90;;;;;;5019192;28;20379;-85
2021/03/01 12:10:37;;;;;;;;;;;23.00;99.90;;;;;;5031783;28;20008;-84
2021/03/01 12:13:05;;;;;;;;;;;22.90;99.90;;;;;;5012422;28;20028;-81
2021/03/01 12:15:31;;;;;;;;;;;22.90;99.90;;;;;;5027271;28;20298;-84
2021/03/01 12:17:58;;;;;;;;;;;22.80;99.90;;;;;;5022235;28;19928;-84
2021/03/01 12:20:25;;;;;;;;;;;22.80;99.90;;;;;;5013106;28;19989;-83
2021/03/01 12:22:52;;;;;;;;;;;22.70;99.90;;;;;;4997161;28;19992;-80
2021/03/01 12:25:18;;;;;;;;;;;22.70;99.90;;;;;;5014041;28;19920;-82
2021/03/01 12:27:45;;;;;;;;;;;22.60;99.90;;;;;;5032771;28;20036;-84
2021/03/01 12:30:12;;;;;;;;;;;22.60;99.90;;;;;;5050677;28;19920;-83
2021/03/01 12:32:39;;;;;;;;;;;22.60;99.90;;;;;;5041449;28;19917;-81
2021/03/01 12:35:06;;;;;;;;;;;22.50;99.90;;;;;;5032161;28;20264;-80
2021/03/01 12:37:33;;;;;;;;;;;22.50;99.90;;;;;;5024111;28;19926;-84
2021/03/01 12:39:59;;;;;;;;;;;22.50;99.90;;;;;;5014636;28;19910;-81
2021/03/01 12:42:26;;;;;;;;;;;22.40;99.90;;;;;;5026327;28;20384;-82
2021/03/01 12:44:53;;;;;;;;;;;22.40;99.90;;;;;;5032104;28;19925;-81
2021/03/01 12:47:20;;;;;;;;;;;22.30;99.90;;;;;;5032493;28;19921;-81
2021/03/01 12:49:46;;;;;;;;;;;22.30;99.90;;;;;;5032574;28;19917;-81
2021/03/01 12:52:13;;;;;;;;;;;22.30;99.90;;;;;;5021324;28;20327;-80
2021/03/01 12:54:40;;;;;;;;;;;22.20;99.90;;;;;;5018458;28;19913;-79
2021/03/01 12:57:09;;;;;;;;;;;22.20;99.90;;;;;;5013237;28;20370;-81
2021/03/01 12:59:35;;;;;;;;;;;22.10;99.90;;;;;;5031264;28;19917;-80
2021/03/01 13:02:05;;;;;;;;;;;22.10;99.90;;;;;;5006229;28;20383;-81
2021/03/01 13:04:32;;;;;;;;;;;22.10;99.90;;;;;;5019021;28;19972;-81
2021/03/01 13:06:59;;;;;;;;;;;22.10;99.90;;;;;;5011556;28;19914;-80
2021/03/01 13:09:26;;;;;;;;;;;22.10;99.90;;;;;;5030240;28;19970;-80
2021/03/01 13:11:53;;;;;;;;;;;22.10;99.90;;;;;;5031227;28;19956;-80
2021/03/01 13:14:19;;;;;;;;;;;22.10;99.90;;;;;;5030982;28;19909;-82
2021/03/01 13:16:46;;;;;;;;;;;22.10;99.90;;;;;;5042017;28;19924;-81
2021/03/01 13:19:16;;;;;;;;;;;22.10;99.90;;;;;;5037080;28;19955;-81
2021/03/01 13:21:44;;;;;;;;;;;22.10;99.90;;;;;;5011313;28;19918;-82
2021/03/01 13:24:10;;;;;;;;;;;22.10;99.90;;;;;;5011103;28;19916;-81
2021/03/01 13:26:37;;;;;;;;;;;22.10;99.90;;;;;;5009475;28;19956;-82
2021/03/01 13:29:04;;;;;;;;;;;22.10;99.90;;;;;;5009576;28;19909;-82
2021/03/01 13:31:31;;;;;;;;;;;22.10;99.90;;;;;;5011076;28;19940;-80
2021/03/01 13:33:57;;;;;;;;;;;22.10;99.90;;;;;;5011121;28;20374;-80
2021/03/01 13:36:24;;;;;;;;;;;22.00;99.90;;;;;;5010586;28;19968;-81
2021/03/01 13:38:51;;;;;;;;;;;22.00;99.90;;;;;;5010978;28;19909;-82
2021/03/01 13:41:18;;;;;;;;;;;22.00;99.90;;;;;;5011224;28;19968;-80
2021/03/01 13:43:44;;;;;;;;;;;22.00;99.90;;;;;;5010665;28;20391;-81
2021/03/01 13:46:11;;;;;;;;;;;22.00;99.90;;;;;;5010969;28;20435;-80
2021/03/01 13:48:38;;;;;;;;;;;22.00;99.90;;;;;;5009556;28;19909;-80
2021/03/01 13:51:04;;;;;;;;;;;21.90;99.90;;;;;;5015086;28;19910;-80
2021/03/01 13:53:31;;;;;;;;;;;21.90;99.90;;;;;;5014748;28;19910;-80
2021/03/01 13:55:58;;;;;;;;;;;21.90;99.90;;;;;;4996886;28;19918;-80
2021/03/01 13:58:24;;;;;;;;;;;21.80;99.90;;;;;;5014521;28;19914;-78
2021/03/01 14:00:51;;;;;;;;;;;21.80;99.90;;;;;;5014463;28;19920;-80
2021/03/01 14:03:18;;;;;;;;;;;21.80;99.90;;;;;;5014469;28;19913;-80
2021/03/01 14:05:45;;;;;;;;;;;21.80;99.90;;;;;;5014784;28;19913;-80
2021/03/01 14:08:12;;;;;;;;;;;21.80;99.90;;;;;;5014580;28;20338;-79
2021/03/01 14:10:38;;;;;;;;;;;21.80;99.90;;;;;;5014224;28;19910;-81
2021/03/01 14:13:05;;;;;;;;;;;21.80;99.90;;;;;;5013018;28;20284;-79
2021/03/01 14:15:31;;;;;;;;;;;21.80;99.90;;;;;;5014139;28;19960;-81
2021/03/01 14:17:58;;;;;;;;;;;21.80;99.90;;;;;;5014150;28;19983;-80
2021/03/01 14:20:25;;;;;;;;;;;21.80;99.90;;;;;;5014400;28;19909;-79
2021/03/01 14:22:51;;;;;;;;;;;21.80;99.90;;;;;;5014177;28;19921;-81
2021/03/01 14:25:18;;;;;;;;;;;21.80;99.90;;;;;;5014349;28;19913;-79
2021/03/01 14:27:45;;;;;;;;;;;21.70;99.90;;;;;;5013793;28;19919;-81
2021/03/01 14:30:12;;;;;;;;;;;21.70;99.90;;;;;;5014079;28;19909;-81
2021/03/01 14:32:39;;;;;;;;;;;21.70;99.90;;;;;;5013958;28;19910;-80